Terminal Aerodrome Forecast
Issued by NWS

Current Version | Previous Version | Text Only | Print | Product List | Glossary On
Versions: 1 2 3 4 5 6 7 8 9 10 11 12 13 14
000
FTUS42 KFFC 242328
TAFPDK
TAF
KPDK 242328Z 2500/2524 19004KT P6SM FEW070 BKN100
     FM250600 16003KT P6SM VCSH BKN050
     FM250900 VRB03KT 5SM -RA BR SCT010 OVC025
      TEMPO 2511/2515 2SM SHRA BR BKN010
     FM251700 22007KT P6SM VCSH SCT020 BKN040 PROB30 2520/2524
      VRB15G25KT 2SM TSRA BR BKN015CB=

USA.gov is the U.S. government's official web portal to all federal, state and local government web resources and services.